createdAt,value
2023-11-03T00:03:18.226Z,7.38
2023-11-03T00:07:01.047Z,7.37
2023-11-03T00:10:45.239Z,7.39
2023-11-03T00:14:28.587Z,7.44
2023-11-03T00:18:12.337Z,7.46
2023-11-03T00:21:55.296Z,7.45
2023-11-03T00:25:38.069Z,7.44
2023-11-03T00:29:22.183Z,7.44
2023-11-03T00:33:05.031Z,7.45
2023-11-03T00:36:48.770Z,7.40
2023-11-03T00:40:31.935Z,7.30
2023-11-03T00:44:14.649Z,7.23
2023-11-03T00:47:59.259Z,7.23
2023-11-03T00:51:42.320Z,7.27
2023-11-03T00:55:25.098Z,7.28
2023-11-03T00:59:09.009Z,7.27
2023-11-03T01:02:51.876Z,7.22
2023-11-03T01:06:36.508Z,7.18
2023-11-03T01:10:19.546Z,7.18
2023-11-03T01:14:02.269Z,7.14
2023-11-03T01:17:45.102Z,7.12
2023-11-03T01:21:29.259Z,7.15
2023-11-03T01:25:13.969Z,7.19
2023-11-03T01:28:57.522Z,7.19
2023-11-03T01:32:40.311Z,7.21
2023-11-03T01:36:23.805Z,7.22
2023-11-03T01:40:09.925Z,7.27
2023-11-03T01:44:08.351Z,7.28
2023-11-03T01:47:51.205Z,7.30
2023-11-03T01:51:34.698Z,7.27
2023-11-03T01:55:17.962Z,7.29
2023-11-03T01:59:03.772Z,7.30
2023-11-03T02:02:48.902Z,7.31
2023-11-03T02:06:31.874Z,7.25
2023-11-03T02:10:14.729Z,7.24
2023-11-03T02:13:57.974Z,7.24
2023-11-03T02:17:41.509Z,7.22
2023-11-03T02:21:25.601Z,7.16
2023-11-03T02:25:10.615Z,7.15
2023-11-03T02:28:54.036Z,7.14
2023-11-03T02:32:36.780Z,7.06
2023-11-03T02:36:20.421Z,7.05
2023-11-03T02:40:03.422Z,7.06
2023-11-03T02:43:47.687Z,7.05
2023-11-03T02:47:30.809Z,7.03
2023-11-03T02:51:13.686Z,7.06
2023-11-03T02:54:56.525Z,7.01
2023-11-03T02:58:40.099Z,6.90
2023-11-03T03:02:24.251Z,6.86
2023-11-03T03:06:07.290Z,6.88
2023-11-03T03:09:50.062Z,6.93
2023-11-03T03:13:32.817Z,6.90
2023-11-03T03:17:15.573Z,6.88
2023-11-03T03:20:59.658Z,6.86
2023-11-03T03:24:42.468Z,6.82
2023-11-03T03:28:25.253Z,6.79
2023-11-03T03:32:08.178Z,6.78
2023-11-03T03:35:51.253Z,6.78
2023-11-03T03:39:35.457Z,6.77
2023-11-03T03:43:18.173Z,6.74
2023-11-03T03:47:00.980Z,6.74
2023-11-03T03:50:43.719Z,6.74
2023-11-03T03:54:26.431Z,6.71
2023-11-03T03:58:10.558Z,6.70
2023-11-03T04:01:53.277Z,6.69
2023-11-03T04:05:36.055Z,6.67
2023-11-03T04:09:18.801Z,6.69
2023-11-03T04:13:01.554Z,6.77
2023-11-03T04:16:45.662Z,6.85
2023-11-03T04:20:28.389Z,6.89
2023-11-03T04:24:11.268Z,6.91
2023-11-03T04:27:54.008Z,6.91
2023-11-03T04:31:36.773Z,6.93
2023-11-03T04:35:20.912Z,6.92
2023-11-03T04:39:06.408Z,6.90
2023-11-03T04:42:49.202Z,6.91
2023-11-03T04:46:31.938Z,6.91
2023-11-03T04:50:14.692Z,6.85
2023-11-03T04:53:58.814Z,6.80
2023-11-03T04:57:42.056Z,6.76
2023-11-03T05:01:24.783Z,6.73
2023-11-03T05:05:08.345Z,6.70
2023-11-03T05:08:51.053Z,6.73
2023-11-03T05:12:35.142Z,6.73
2023-11-03T05:16:17.886Z,6.77
2023-11-03T05:20:00.557Z,6.80
2023-11-03T05:23:43.311Z,6.83
2023-11-03T05:27:26.063Z,6.88
2023-11-03T05:31:10.401Z,6.92
2023-11-03T05:34:53.375Z,6.93
2023-11-03T05:38:36.112Z,6.94
2023-11-03T05:42:18.880Z,6.94
2023-11-03T05:46:01.798Z,6.95
2023-11-03T05:49:45.996Z,6.96
2023-11-03T05:53:28.742Z,6.90
2023-11-03T05:57:11.586Z,6.94
2023-11-03T06:00:55.506Z,6.87
2023-11-03T06:04:38.422Z,6.79
2023-11-03T06:08:22.699Z,6.76
2023-11-03T06:12:06.489Z,6.78
2023-11-03T06:15:49.371Z,6.79
2023-11-03T06:19:32.581Z,6.77
2023-11-03T06:23:15.337Z,6.74
2023-11-03T06:27:00.931Z,6.81
2023-11-03T06:30:44.211Z,6.78
2023-11-03T06:34:27.067Z,6.75
2023-11-03T06:38:09.883Z,6.70
2023-11-03T06:41:52.614Z,6.74
2023-11-03T06:45:36.739Z,6.65
2023-11-03T06:49:19.577Z,6.66
2023-11-03T06:53:02.570Z,6.61
2023-11-03T06:56:46.448Z,6.59
2023-11-03T07:00:29.809Z,6.62
2023-11-03T07:04:15.444Z,6.59
2023-11-03T07:07:58.591Z,6.57
2023-11-03T07:11:41.996Z,6.52
2023-11-03T07:15:24.883Z,6.58
2023-11-03T07:19:15.224Z,6.57
2023-11-03T07:22:58.175Z,6.49
2023-11-03T07:26:41.159Z,6.53
2023-11-03T07:30:23.918Z,6.48
2023-11-03T07:34:06.844Z,6.40
2023-11-03T07:37:52.066Z,6.43
2023-11-03T07:41:35.598Z,6.42
2023-11-03T07:45:18.489Z,6.54
2023-11-03T07:49:01.301Z,6.50
2023-11-03T07:52:44.357Z,6.52
2023-11-03T07:56:35.542Z,6.52
2023-11-03T08:00:21.596Z,6.55
2023-11-03T08:04:05.424Z,6.51
2023-11-03T08:07:49.026Z,6.49
2023-11-03T08:11:33.164Z,6.54
2023-11-03T08:15:16.491Z,6.57
2023-11-03T08:18:59.762Z,6.59
2023-11-03T08:22:42.656Z,6.61
2023-11-03T08:26:25.438Z,6.61
2023-11-03T08:30:10.812Z,6.63
2023-11-03T08:33:53.926Z,6.65
2023-11-03T08:37:36.753Z,6.63
2023-11-03T08:41:20.289Z,6.64
2023-11-03T08:45:03.667Z,6.69
2023-11-03T08:48:47.950Z,6.74
2023-11-03T08:52:31.782Z,6.77
2023-11-03T08:56:14.720Z,6.84
2023-11-03T08:59:57.460Z,6.83
2023-11-03T09:03:41.733Z,6.85
2023-11-03T09:07:25.901Z,6.93
2023-11-03T09:11:08.710Z,6.95
2023-11-03T09:14:51.885Z,6.95
2023-11-03T09:18:38.207Z,7.03
2023-11-03T09:22:28.520Z,7.08
2023-11-03T09:26:17.955Z,7.05
2023-11-03T09:30:01.302Z,7.06
2023-11-03T09:33:44.149Z,7.05
2023-11-03T09:37:26.987Z,7.10
2023-11-03T09:41:10.439Z,7.14
2023-11-03T09:44:54.622Z,7.12
2023-11-03T09:48:39.085Z,7.19
2023-11-03T09:52:24.889Z,7.21
2023-11-03T09:56:08.981Z,7.22
2023-11-03T09:59:51.825Z,7.17
2023-11-03T10:03:36.120Z,7.18
2023-11-03T10:07:19.674Z,7.17
2023-11-03T10:11:06.253Z,7.18
2023-11-03T10:14:49.256Z,7.19
2023-11-03T10:18:32.210Z,7.14
2023-11-03T10:22:16.570Z,7.18
2023-11-03T10:25:59.381Z,7.18
2023-11-03T10:29:42.478Z,7.08
2023-11-03T10:33:26.230Z,7.06
2023-11-03T10:37:10.673Z,6.97
2023-11-03T10:40:55.599Z,6.92
2023-11-03T10:44:39.912Z,6.96
2023-11-03T10:48:28.091Z,6.96
2023-11-03T10:52:13.821Z,7.09
2023-11-03T10:56:15.705Z,7.02
2023-11-03T11:00:12.332Z,7.06
2023-11-03T11:03:59.247Z,7.00
2023-11-03T11:07:44.168Z,6.94
2023-11-03T11:11:29.312Z,7.00
2023-11-03T11:15:13.498Z,7.02
2023-11-03T11:18:56.357Z,6.97
2023-11-03T11:22:42.162Z,6.83
2023-11-03T11:26:34.694Z,6.62
2023-11-03T11:30:20.474Z,6.61
2023-11-03T11:34:04.519Z,6.51
2023-11-03T11:37:47.479Z,6.43
2023-11-03T11:41:31.613Z,6.48
2023-11-03T11:45:15.693Z,6.39
2023-11-03T11:49:02.560Z,5.98
2023-11-03T11:52:50.133Z,5.89
2023-11-03T11:56:33.185Z,5.92
2023-11-03T12:00:17.727Z,5.98
2023-11-03T12:04:07.270Z,6.00
2023-11-03T12:07:50.269Z,5.85
2023-11-03T12:11:34.000Z,5.82
2023-11-03T12:15:16.861Z,5.94
2023-11-03T12:18:59.720Z,6.00
2023-11-03T12:22:44.565Z,6.15
2023-11-03T12:26:27.796Z,6.30
2023-11-03T12:30:12.983Z,6.42
2023-11-03T12:34:02.624Z,6.55
2023-11-03T12:37:47.105Z,6.68
2023-11-03T12:41:30.066Z,6.78
2023-11-03T12:45:13.462Z,6.82
2023-11-03T12:49:07.740Z,6.91
2023-11-03T12:53:04.257Z,6.89
2023-11-03T12:56:47.271Z,6.81
2023-11-03T13:00:33.021Z,6.76
2023-11-03T13:04:16.135Z,6.78
2023-11-03T13:08:03.024Z,6.72
2023-11-03T13:11:47.274Z,6.72
2023-11-03T13:15:30.125Z,6.73
2023-11-03T13:19:12.961Z,6.76
2023-11-03T13:23:00.192Z,6.80
2023-11-03T13:26:44.414Z,6.77
2023-11-03T13:30:27.254Z,6.55
2023-11-03T13:34:10.549Z,6.59
2023-11-03T13:37:53.540Z,6.77
2023-11-03T13:41:36.513Z,6.85
2023-11-03T13:45:20.641Z,6.94
2023-11-03T13:49:05.219Z,7.06
2023-11-03T13:52:48.035Z,7.08
2023-11-03T13:56:30.840Z,7.06
2023-11-03T14:00:15.312Z,7.12
2023-11-03T14:03:59.600Z,7.18
2023-11-03T14:07:42.430Z,7.13
2023-11-03T14:11:25.261Z,7.04
2023-11-03T14:15:10.858Z,7.04
2023-11-03T14:18:54.647Z,6.96
2023-11-03T14:22:38.861Z,6.94
2023-11-03T14:26:24.124Z,6.92
2023-11-03T14:30:09.612Z,6.87
2023-11-03T14:33:53.265Z,6.88
2023-11-03T14:37:36.146Z,6.88
2023-11-03T14:41:20.316Z,6.86
2023-11-03T14:45:03.183Z,6.87
2023-11-03T14:48:46.030Z,6.82
2023-11-03T14:52:29.016Z,6.76
2023-11-03T14:56:11.858Z,6.74
2023-11-03T14:59:55.991Z,6.77
2023-11-03T15:03:39.790Z,6.70
2023-11-03T15:07:23.628Z,6.70
2023-11-03T15:11:06.402Z,6.68
2023-11-03T15:14:49.362Z,6.61
2023-11-03T15:18:34.326Z,6.53
2023-11-03T15:22:17.267Z,6.57
2023-11-03T15:26:00.066Z,6.51
2023-11-03T15:29:43.149Z,6.49
2023-11-03T15:33:25.899Z,6.53
2023-11-03T15:37:11.301Z,6.45
2023-11-03T15:40:54.243Z,6.44
2023-11-03T15:44:36.960Z,6.48
2023-11-03T15:48:19.712Z,6.39
2023-11-03T15:52:02.590Z,6.44
2023-11-03T15:55:48.433Z,6.37
2023-11-03T15:59:31.293Z,6.31
2023-11-03T16:03:16.403Z,6.33
2023-11-03T16:06:59.224Z,6.27
2023-11-03T16:10:43.426Z,6.32
2023-11-03T16:14:27.655Z,6.35
2023-11-03T16:18:11.094Z,6.34
2023-11-03T16:21:53.850Z,6.28
2023-11-03T16:25:36.671Z,6.24
2023-11-03T16:29:19.954Z,6.27
2023-11-03T16:33:04.337Z,6.23
2023-11-03T16:36:47.182Z,6.20
2023-11-03T16:40:30.377Z,6.19
2023-11-03T16:44:13.139Z,6.25
2023-11-03T16:47:56.046Z,6.25
2023-11-03T16:51:45.443Z,6.24
2023-11-03T16:55:31.799Z,6.28
2023-11-03T16:59:18.909Z,6.28
2023-11-03T17:03:01.683Z,6.19
2023-11-03T17:06:45.819Z,6.12
2023-11-03T17:10:28.639Z,6.04
2023-11-03T17:14:11.430Z,6.15
2023-11-03T17:17:54.190Z,6.02
2023-11-03T17:21:36.960Z,6.05
2023-11-03T17:25:21.498Z,5.96
2023-11-03T17:29:07.046Z,5.94
2023-11-03T17:32:50.207Z,5.97
2023-11-03T17:36:33.062Z,5.94
2023-11-03T17:40:17.799Z,5.99
2023-11-03T17:44:02.026Z,5.95
2023-11-03T17:47:46.204Z,5.90
2023-11-03T17:51:29.190Z,5.85
2023-11-03T17:55:14.707Z,5.85
2023-11-03T17:58:57.589Z,5.84
2023-11-03T18:02:41.848Z,5.78
2023-11-03T18:06:24.761Z,5.76
2023-11-03T18:10:08.373Z,5.74
2023-11-03T18:13:51.119Z,5.72
2023-11-03T18:17:34.886Z,5.73
2023-11-03T18:21:19.125Z,5.66
2023-11-03T18:25:01.943Z,5.70
2023-11-03T18:28:44.716Z,5.71
2023-11-03T18:32:28.771Z,5.61
2023-11-03T18:36:14.649Z,5.61
2023-11-03T18:40:00.362Z,5.62
2023-11-03T18:43:44.316Z,5.62
2023-11-03T18:47:27.256Z,5.62
2023-11-03T18:51:26.060Z,5.59
2023-11-03T18:56:06.153Z,5.61
2023-11-03T19:07:30.582Z,5.58
2023-11-03T19:10:54.623Z,5.54
2023-11-03T19:14:37.805Z,5.60
2023-11-03T19:18:21.522Z,5.55
2023-11-03T19:22:05.498Z,5.59
2023-11-03T19:25:48.496Z,5.56
2023-11-03T19:29:36.497Z,5.48
2023-11-03T19:33:19.310Z,5.54
2023-11-03T19:37:02.248Z,5.56
2023-11-03T19:40:45.302Z,5.58
2023-11-03T19:44:28.143Z,5.61
2023-11-03T19:48:12.689Z,5.52
2023-11-03T19:51:55.716Z,5.52
2023-11-03T19:55:39.606Z,5.46
2023-11-03T19:59:24.255Z,5.45
2023-11-03T20:03:07.654Z,5.46
2023-11-03T20:06:52.714Z,5.40
2023-11-03T20:10:36.149Z,5.37
2023-11-03T20:14:19.026Z,5.37
2023-11-03T20:18:04.090Z,5.42
2023-11-03T20:21:47.612Z,5.42
2023-11-03T20:25:31.765Z,5.37
2023-11-03T20:29:14.569Z,5.34
2023-11-03T20:32:58.335Z,5.33
2023-11-03T20:36:41.266Z,5.36
2023-11-03T20:40:24.047Z,5.36
2023-11-03T20:44:08.230Z,5.43
2023-11-03T20:47:51.259Z,5.45
2023-11-03T20:51:34.284Z,5.47
2023-11-03T20:55:17.628Z,5.56
2023-11-03T20:59:00.836Z,5.55
2023-11-03T21:02:49.281Z,5.58
2023-11-03T21:06:34.150Z,5.60
2023-11-03T21:10:18.325Z,5.64
2023-11-03T21:14:01.128Z,5.67
2023-11-03T21:17:45.318Z,5.65
2023-11-03T21:21:28.164Z,5.64
2023-11-03T21:25:12.123Z,5.63
2023-11-03T21:28:54.952Z,5.71
2023-11-03T21:32:37.699Z,5.64
2023-11-03T21:36:25.879Z,5.67
2023-11-03T21:40:16.816Z,5.55
2023-11-03T21:44:00.261Z,5.57
2023-11-03T21:47:49.047Z,5.49
2023-11-03T21:51:33.258Z,5.45
2023-11-03T21:55:16.141Z,5.39
2023-11-03T21:58:58.890Z,5.38
2023-11-03T22:02:41.730Z,5.33
2023-11-03T22:06:24.502Z,5.36
2023-11-03T22:10:10.498Z,5.27
2023-11-03T22:13:53.326Z,5.32
2023-11-03T22:17:45.756Z,5.24
2023-11-03T22:21:33.980Z,5.20
2023-11-03T22:25:18.155Z,5.17
2023-11-03T22:29:00.946Z,5.08
2023-11-03T22:32:43.873Z,5.03
2023-11-03T22:36:27.750Z,5.00
2023-11-03T22:40:12.863Z,4.99
2023-11-03T22:43:57.075Z,4.92
2023-11-03T22:47:40.229Z,4.90
2023-11-03T22:51:23.073Z,4.92
2023-11-03T22:55:06.596Z,4.94
2023-11-03T22:58:49.455Z,4.96
2023-11-03T23:02:33.679Z,4.99
2023-11-03T23:06:19.066Z,5.00
2023-11-03T23:10:02.113Z,4.98
2023-11-03T23:13:45.926Z,4.96
2023-11-03T23:17:28.716Z,4.94
2023-11-03T23:21:13.267Z,4.91
2023-11-03T23:24:56.049Z,4.90
2023-11-03T23:28:41.100Z,4.91
2023-11-03T23:32:24.027Z,4.94
2023-11-03T23:36:07.717Z,4.91
2023-11-03T23:39:51.811Z,4.91
2023-11-03T23:43:34.736Z,4.89
2023-11-03T23:47:17.497Z,4.88
2023-11-03T23:51:00.248Z,4.90
2023-11-03T23:54:43.089Z,5.00
2023-11-03T23:58:27.196Z,5.11
